Time;durP1;ratioP1;P1;durP2;ratioP2;P2;SDS_P1;SDS_P2;PMS_P1;PMS_P2;Temp;Humidity;BMP_temperature;BMP_pressure;BME280_temperature;BME280_humidity;BME280_pressure;Samples;Min_cycle;Max_cycle;Signal;HPM_P1;HPM_P2
2022/04/17 00:02:11;;;;;;;5.72;3.47;;;;;;;;;;5095084;28;20062;-71
2022/04/17 00:04:37;;;;;;;6.72;3.55;;;;;;;;;;5082112;28;20044;-70
2022/04/17 00:07:03;;;;;;;5.85;3.40;;;;;;;;;;5057817;28;20051;-70
2022/04/17 00:09:29;;;;;;;6.88;3.30;;;;;;;;;;5072929;28;20074;-70
2022/04/17 00:11:55;;;;;;;6.63;3.17;;;;;;;;;;5072585;28;20125;-70
2022/04/17 00:14:21;;;;;;;4.40;2.90;;;;;;;;;;5060306;28;20106;-70
2022/04/17 00:16:47;;;;;;;6.75;3.03;;;;;;;;;;5054682;28;20516;-69
2022/04/17 00:19:13;;;;;;;6.28;3.47;;;;;;;;;;5069807;28;20055;-69
2022/04/17 00:21:40;;;;;;;8.25;3.17;;;;;;;;;;5075661;28;20048;-70
2022/04/17 00:24:06;;;;;;;7.90;3.35;;;;;;;;;;5087440;28;20412;-69
2022/04/17 00:26:32;;;;;;;5.78;3.50;;;;;;;;;;5091601;28;20127;-70
2022/04/17 00:28:58;;;;;;;6.75;3.13;;;;;;;;;;5092551;28;20606;-70
2022/04/17 00:31:24;;;;;;;7.05;3.85;;;;;;;;;;5091915;28;20076;-70
2022/04/17 00:33:53;;;;;;;5.50;3.35;;;;;;;;;;5077543;28;20511;-70
2022/04/17 00:36:19;;;;;;;6.68;3.22;;;;;;;;;;5068350;28;20136;-69
2022/04/17 00:38:45;;;;;;;4.97;3.30;;;;;;;;;;5073056;28;20086;-69
2022/04/17 00:41:11;;;;;;;6.15;3.47;;;;;;;;;;5074244;28;20462;-70
2022/04/17 00:43:44;;;;;;;5.63;3.28;;;;;;;;;;5073211;28;20047;-69
2022/04/17 00:46:10;;;;;;;5.28;3.47;;;;;;;;;;5072145;28;20053;-69
2022/04/17 00:48:36;;;;;;;5.15;3.58;;;;;;;;;;5058107;28;20119;-69
2022/04/17 00:51:03;;;;;;;8.02;4.55;;;;;;;;;;5074056;28;20040;-69
2022/04/17 00:53:29;;;;;;;7.70;3.80;;;;;;;;;;5100394;28;20052;-70
2022/04/17 00:55:56;;;;;;;7.43;3.53;;;;;;;;;;5037459;28;20381;-69
2022/04/17 00:58:22;;;;;;;10.40;4.28;;;;;;;;;;5053976;28;20098;-69
2022/04/17 01:00:48;;;;;;;9.65;4.00;;;;;;;;;;5089038;28;20404;-69
2022/04/17 01:03:14;;;;;;;7.45;3.88;;;;;;;;;;5092107;28;20044;-69
2022/04/17 01:05:43;;;;;;;7.20;4.05;;;;;;;;;;5073935;28;20055;-70
2022/04/17 01:08:12;;;;;;;7.53;3.80;;;;;;;;;;5072308;28;20552;-69
2022/04/17 01:10:38;;;;;;;7.05;4.00;;;;;;;;;;5072487;28;20040;-69
2022/04/17 01:13:04;;;;;;;9.48;3.80;;;;;;;;;;5102542;28;20043;-69
2022/04/17 01:15:33;;;;;;;6.22;3.83;;;;;;;;;;5106812;28;20070;-69
2022/04/17 01:18:00;;;;;;;7.40;4.07;;;;;;;;;;5068078;28;20045;-69
2022/04/17 01:20:26;;;;;;;7.30;4.05;;;;;;;;;;5071738;28;20056;-69
2022/04/17 01:28:26;;;;;;;6.82;3.78;;;;;;;;;;4976831;28;20510;-69
2022/04/17 01:30:56;;;;;;;8.68;4.70;;;;;;;;;;4976941;28;20102;-69
2022/04/17 01:33:23;;;;;;;7.13;4.13;;;;;;;;;;4977690;28;20482;-69
2022/04/17 01:35:49;;;;;;;10.40;4.97;;;;;;;;;;4977724;28;20490;-69
2022/04/17 01:38:16;;;;;;;9.38;4.93;;;;;;;;;;4976388;28;20066;-69
2022/04/17 01:40:42;;;;;;;9.23;4.40;;;;;;;;;;4992967;28;20642;-69
2022/04/17 01:43:11;;;;;;;8.80;5.03;;;;;;;;;;4992861;28;20093;-68
2022/04/17 01:45:37;;;;;;;9.05;4.63;;;;;;;;;;4974144;28;20097;-69
2022/04/17 01:48:04;;;;;;;7.40;4.53;;;;;;;;;;4977318;28;20050;-69
2022/04/17 01:50:30;;;;;;;5.85;4.00;;;;;;;;;;4992653;28;20054;-69
2022/04/17 01:53:00;;;;;;;8.38;4.95;;;;;;;;;;4993182;28;20502;-68
2022/04/17 01:55:27;;;;;;;11.25;4.93;;;;;;;;;;4989452;28;20059;-68
2022/04/17 01:57:53;;;;;;;8.32;4.38;;;;;;;;;;4957767;28;20102;-69
2022/04/17 02:00:19;;;;;;;9.77;4.78;;;;;;;;;;4958345;28;20055;-68
2022/04/17 02:02:45;;;;;;;10.52;5.07;;;;;;;;;;5030356;28;20410;-69
2022/04/17 02:05:11;;;;;;;9.50;4.93;;;;;;;;;;5075108;28;20071;-69
2022/04/17 02:07:37;;;;;;;8.38;4.50;;;;;;;;;;5094759;28;20119;-69
2022/04/17 02:10:05;;;;;;;10.27;4.82;;;;;;;;;;5074687;28;20106;-69
2022/04/17 02:12:31;;;;;;;7.07;4.13;;;;;;;;;;5082454;28;20048;-68
2022/04/17 02:14:57;;;;;;;9.35;4.97;;;;;;;;;;5080279;28;20070;-69
2022/04/17 02:17:23;;;;;;;7.65;4.68;;;;;;;;;;5094737;28;20391;-69
2022/04/17 02:19:49;;;;;;;7.63;4.65;;;;;;;;;;5076648;28;20052;-68
2022/04/17 02:22:15;;;;;;;9.63;4.72;;;;;;;;;;5076335;28;20146;-68
2022/04/17 02:24:41;;;;;;;9.35;5.40;;;;;;;;;;5076688;28;20044;-68
2022/04/17 02:27:07;;;;;;;8.43;4.75;;;;;;;;;;5089727;28;20048;-68
2022/04/17 02:29:33;;;;;;;8.90;4.78;;;;;;;;;;5093695;28;20086;-68
2022/04/17 02:31:59;;;;;;;9.80;4.70;;;;;;;;;;5075962;28;20076;-68
2022/04/17 02:34:25;;;;;;;10.10;4.47;;;;;;;;;;5059093;28;20052;-68
2022/04/17 02:36:54;;;;;;;9.15;5.18;;;;;;;;;;5083460;28;20066;-68
2022/04/17 02:39:20;;;;;;;8.15;5.38;;;;;;;;;;5075920;28;20056;-69
2022/04/17 02:41:46;;;;;;;9.05;4.90;;;;;;;;;;5075604;28;20120;-69
2022/04/17 02:44:12;;;;;;;9.32;5.35;;;;;;;;;;5073172;28;20044;-68
2022/04/17 02:49:23;;;;;;;8.52;4.80;;;;;;;;;;5092382;28;20078;-68
2022/04/17 02:51:49;;;;;;;7.97;5.03;;;;;;;;;;5093908;28;20047;-69
2022/04/17 02:54:15;;;;;;;10.45;5.15;;;;;;;;;;5093898;28;20404;-69
2022/04/17 02:56:41;;;;;;;9.45;4.60;;;;;;;;;;5075929;28;20048;-68
2022/04/17 02:59:07;;;;;;;8.20;5.05;;;;;;;;;;5093854;28;20154;-69
2022/04/17 03:07:04;;;;;;;9.93;4.80;;;;;;;;;;5075429;28;20083;-69
2022/04/17 03:09:30;;;;;;;8.57;5.28;;;;;;;;;;5088995;28;20043;-69
2022/04/17 03:11:56;;;;;;;11.65;5.63;;;;;;;;;;5090274;28;20040;-69
2022/04/17 03:14:22;;;;;;;14.48;5.85;;;;;;;;;;5075301;28;20226;-68
2022/04/17 03:16:48;;;;;;;9.45;5.18;;;;;;;;;;5058671;28;20051;-69
2022/04/17 03:19:14;;;;;;;9.95;5.38;;;;;;;;;;5092763;28;20044;-69
2022/04/17 03:21:41;;;;;;;11.82;6.20;;;;;;;;;;5074568;28;20079;-69
2022/04/17 03:24:07;;;;;;;10.80;5.78;;;;;;;;;;5075737;28;20072;-69
2022/04/17 03:26:36;;;;;;;12.00;5.60;;;;;;;;;;5075667;28;20678;-69
2022/04/17 03:29:04;;;;;;;9.00;5.18;;;;;;;;;;5075536;28;20043;-69
2022/04/17 03:31:30;;;;;;;10.50;4.93;;;;;;;;;;5075038;28;20051;-69
2022/04/17 03:33:56;;;;;;;14.00;5.65;;;;;;;;;;5073417;28;20047;-69
2022/04/17 03:36:22;;;;;;;9.63;5.05;;;;;;;;;;5092856;28;20093;-69
2022/04/17 03:38:48;;;;;;;8.90;5.35;;;;;;;;;;5092244;28;20060;-69
2022/04/17 03:41:14;;;;;;;9.75;5.05;;;;;;;;;;5075092;28;20826;-69
2022/04/17 03:43:40;;;;;;;10.30;5.32;;;;;;;;;;5084244;28;20056;-69
2022/04/17 03:46:06;;;;;;;11.05;5.53;;;;;;;;;;5092020;28;20052;-69
2022/04/17 03:48:32;;;;;;;9.45;5.45;;;;;;;;;;5074711;28;20123;-69
2022/04/17 03:50:58;;;;;;;9.50;5.70;;;;;;;;;;5092485;28;20039;-70
2022/04/17 03:53:24;;;;;;;10.85;5.40;;;;;;;;;;5092981;28;20081;-69
2022/04/17 03:55:50;;;;;;;8.75;5.45;;;;;;;;;;5092187;28;20674;-69
2022/04/17 03:58:16;;;;;;;10.13;6.15;;;;;;;;;;5092703;28;20058;-69
2022/04/17 04:00:42;;;;;;;10.30;5.82;;;;;;;;;;5091005;28;20048;-69
2022/04/17 04:03:08;;;;;;;8.15;5.05;;;;;;;;;;5090904;28;20090;-69
2022/04/17 04:05:34;;;;;;;9.30;5.55;;;;;;;;;;5092586;28;20087;-69
2022/04/17 04:08:01;;;;;;;9.55;5.78;;;;;;;;;;5074690;28;20105;-69
2022/04/17 04:10:27;;;;;;;9.20;5.47;;;;;;;;;;5074757;28;20048;-69
2022/04/17 04:12:54;;;;;;;11.45;5.50;;;;;;;;;;5057289;28;20073;-69
2022/04/17 04:15:20;;;;;;;10.57;5.53;;;;;;;;;;5074660;28;20093;-69
2022/04/17 04:17:46;;;;;;;9.25;5.68;;;;;;;;;;5072775;28;20044;-69
2022/04/17 04:20:12;;;;;;;8.30;5.28;;;;;;;;;;5091339;28;20054;-70
2022/04/17 04:22:38;;;;;;;11.82;5.85;;;;;;;;;;5074206;28;20097;-69
2022/04/17 04:25:05;;;;;;;10.85;5.75;;;;;;;;;;5057451;28;20054;-69
2022/04/17 04:30:16;;;;;;;9.30;5.70;;;;;;;;;;5091069;28;20044;-69
2022/04/17 04:32:52;;;;;;;12.20;6.18;;;;;;;;;;5074617;28;20047;-69
2022/04/17 04:35:18;;;;;;;11.48;5.68;;;;;;;;;;5091777;28;20067;-69
2022/04/17 04:37:45;;;;;;;9.48;5.55;;;;;;;;;;5092148;28;20483;-69
2022/04/17 04:40:15;;;;;;;12.20;6.05;;;;;;;;;;5092092;28;20056;-68
2022/04/17 04:42:44;;;;;;;10.13;6.03;;;;;;;;;;5090822;28;20059;-69
2022/04/17 04:47:55;;;;;;;12.05;5.68;;;;;;;;;;5092354;28;20085;-69
2022/04/17 04:50:21;;;;;;;9.70;5.95;;;;;;;;;;5072772;28;20043;-69
2022/04/17 04:52:49;;;;;;;11.88;5.75;;;;;;;;;;5092211;28;20044;-73
2022/04/17 04:55:15;;;;;;;10.82;6.45;;;;;;;;;;5091397;28;20043;-73
2022/04/17 04:57:41;;;;;;;9.70;6.10;;;;;;;;;;5096421;28;20044;-72
2022/04/17 05:00:08;;;;;;;17.88;7.72;;;;;;;;;;5095268;28;20048;-72
2022/04/17 05:02:37;;;;;;;12.88;6.22;;;;;;;;;;5070335;28;20048;-73
2022/04/17 05:05:03;;;;;;;11.85;5.95;;;;;;;;;;5077665;28;20787;-72
2022/04/17 05:07:29;;;;;;;11.23;6.00;;;;;;;;;;5077694;28;20055;-73
2022/04/17 05:09:55;;;;;;;9.13;5.57;;;;;;;;;;5077155;28;20043;-73
2022/04/17 05:12:22;;;;;;;8.95;6.10;;;;;;;;;;5081029;28;20437;-71
2022/04/17 05:14:48;;;;;;;12.05;5.88;;;;;;;;;;5095190;28;20480;-70
2022/04/17 05:17:14;;;;;;;14.27;6.28;;;;;;;;;;5088258;28;20579;-71
2022/04/17 05:19:43;;;;;;;8.05;5.30;;;;;;;;;;5076405;28;20044;-72
2022/04/17 05:22:16;;;;;;;9.43;6.55;;;;;;;;;;5059945;28;20150;-71
2022/04/17 05:24:45;;;;;;;12.98;6.45;;;;;;;;;;5077895;28;20070;-71
2022/04/17 05:27:14;;;;;;;10.30;6.20;;;;;;;;;;5078031;28;20069;-72
2022/04/17 05:29:41;;;;;;;10.30;5.70;;;;;;;;;;5077627;28;20052;-71
2022/04/17 05:32:09;;;;;;;10.25;6.22;;;;;;;;;;5060472;28;20067;-72
2022/04/17 05:34:39;;;;;;;10.50;5.72;;;;;;;;;;5076870;28;20077;-72
2022/04/17 05:37:08;;;;;;;9.13;5.60;;;;;;;;;;5077481;28;20052;-74
2022/04/17 05:39:36;;;;;;;9.65;5.88;;;;;;;;;;5077054;28;20488;-72
2022/04/17 05:42:03;;;;;;;11.32;6.38;;;;;;;;;;5059113;28;20044;-72
2022/04/17 05:44:30;;;;;;;9.73;5.82;;;;;;;;;;5075185;28;20048;-72
2022/04/17 05:46:59;;;;;;;11.18;5.97;;;;;;;;;;5091076;28;20408;-73
2022/04/17 05:49:25;;;;;;;9.45;5.40;;;;;;;;;;5075783;28;20051;-69
2022/04/17 05:51:52;;;;;;;11.70;5.70;;;;;;;;;;5078627;28;20044;-70
2022/04/17 05:54:19;;;;;;;11.35;6.10;;;;;;;;;;5080810;28;20047;-70
2022/04/17 05:56:50;;;;;;;13.70;6.70;;;;;;;;;;5093996;28;20044;-70
2022/04/17 05:59:16;;;;;;;10.38;5.80;;;;;;;;;;5095283;28;20048;-69
2022/04/17 06:01:42;;;;;;;10.85;5.90;;;;;;;;;;5094687;28;20502;-70
2022/04/17 06:04:10;;;;;;;10.63;5.72;;;;;;;;;;5094153;28;20046;-70
2022/04/17 06:06:38;;;;;;;12.50;6.55;;;;;;;;;;5075917;28;20097;-70
2022/04/17 06:09:05;;;;;;;10.90;6.32;;;;;;;;;;5094728;28;20040;-70
2022/04/17 06:11:31;;;;;;;12.73;6.10;;;;;;;;;;5074533;28;20090;-70
2022/04/17 06:14:02;;;;;;;10.30;5.65;;;;;;;;;;5092218;28;20060;-70
2022/04/17 06:16:32;;;;;;;10.70;6.53;;;;;;;;;;5074384;28;20067;-70
2022/04/17 06:18:58;;;;;;;8.20;5.60;;;;;;;;;;5094872;28;20495;-70
2022/04/17 06:21:24;;;;;;;10.55;5.57;;;;;;;;;;5093770;28;20048;-67
2022/04/17 06:23:50;;;;;;;11.45;6.15;;;;;;;;;;5094426;28;20101;-65
2022/04/17 06:26:16;;;;;;;11.32;6.25;;;;;;;;;;5056329;28;20048;-66
2022/04/17 06:28:45;;;;;;;9.77;5.45;;;;;;;;;;5076204;28;20055;-65
2022/04/17 06:31:11;;;;;;;9.60;5.47;;;;;;;;;;5076188;28;20075;-65
2022/04/17 06:33:37;;;;;;;8.88;5.45;;;;;;;;;;5063040;28;20122;-66
2022/04/17 06:36:03;;;;;;;8.35;5.85;;;;;;;;;;5093371;28;20101;-66
2022/04/17 06:38:29;;;;;;;10.10;5.88;;;;;;;;;;5093651;28;20066;-67
2022/04/17 06:40:58;;;;;;;10.60;6.30;;;;;;;;;;5093978;28;20063;-65
2022/04/17 06:43:24;;;;;;;10.13;6.00;;;;;;;;;;5070571;28;20061;-67
2022/04/17 06:45:50;;;;;;;10.52;6.38;;;;;;;;;;5077840;28;20062;-66
2022/04/17 06:48:16;;;;;;;10.55;6.32;;;;;;;;;;5093407;28;20101;-65
2022/04/17 06:50:43;;;;;;;9.13;5.82;;;;;;;;;;5071007;28;20044;-66
2022/04/17 06:53:09;;;;;;;8.88;5.35;;;;;;;;;;5058402;28;20133;-66
2022/04/17 06:55:35;;;;;;;11.35;7.00;;;;;;;;;;5075357;28;20048;-65
2022/04/17 06:58:07;;;;;;;12.35;6.05;;;;;;;;;;5092572;28;20040;-65
2022/04/17 07:00:33;;;;;;;8.15;5.80;;;;;;;;;;5057940;28;20407;-65
2022/04/17 07:03:02;;;;;;;10.70;5.82;;;;;;;;;;5057471;28;20091;-65
2022/04/17 07:05:28;;;;;;;12.05;6.88;;;;;;;;;;5058681;28;20048;-65
2022/04/17 07:08:04;;;;;;;9.60;5.80;;;;;;;;;;5075712;28;20040;-64
2022/04/17 07:10:33;;;;;;;10.80;5.82;;;;;;;;;;5094517;28;20115;-64
2022/04/17 07:13:04;;;;;;;8.88;5.60;;;;;;;;;;5074776;28;20736;-64
2022/04/17 07:15:30;;;;;;;11.20;6.32;;;;;;;;;;5055196;28;20056;-66
2022/04/17 07:17:59;;;;;;;11.15;6.20;;;;;;;;;;5073830;28;20085;-66
2022/04/17 07:20:25;;;;;;;10.15;6.43;;;;;;;;;;5055540;28;20508;-64
2022/04/17 07:23:00;;;;;;;10.65;5.85;;;;;;;;;;5069176;28;20062;-65
2022/04/17 07:25:26;;;;;;;8.40;6.03;;;;;;;;;;5053584;28;20556;-65
2022/04/17 07:27:53;;;;;;;14.25;6.05;;;;;;;;;;5069993;28;20047;-63
2022/04/17 07:30:23;;;;;;;9.77;5.22;;;;;;;;;;5074743;28;20112;-64
2022/04/17 07:32:53;;;;;;;10.20;5.70;;;;;;;;;;5041210;28;20078;-65
2022/04/17 07:35:22;;;;;;;10.13;5.55;;;;;;;;;;5091587;28;20052;-63
2022/04/17 07:37:49;;;;;;;9.05;5.70;;;;;;;;;;5074706;28;20040;-64
2022/04/17 07:40:22;;;;;;;9.60;5.85;;;;;;;;;;5074599;28;20052;-64
2022/04/17 07:42:49;;;;;;;9.55;5.38;;;;;;;;;;5091143;28;20040;-59
2022/04/17 07:45:16;;;;;;;7.85;5.10;;;;;;;;;;5092996;28;20055;-59
2022/04/17 07:47:44;;;;;;;6.85;3.33;;;;;;;;;;5090877;28;20054;-59
2022/04/17 07:50:13;;;;;;;9.35;4.60;;;;;;;;;;5057762;28;20040;-59
2022/04/17 07:52:41;;;;;;;11.00;5.40;;;;;;;;;;5092852;28;20123;-60
2022/04/17 07:55:12;;;;;;;8.88;5.70;;;;;;;;;;5043430;28;20040;-63
2022/04/17 08:00:34;;;;;;;8.32;5.45;;;;;;;;;;5082155;28;20048;-61
2022/04/17 08:03:10;;;;;;;8.40;5.30;;;;;;;;;;5058293;28;20106;-59
2022/04/17 08:05:39;;;;;;;7.97;5.10;;;;;;;;;;5092810;28;20062;-61
2022/04/17 08:08:10;;;;;;;9.50;5.10;;;;;;;;;;5092647;28;20450;-55
2022/04/17 08:10:37;;;;;;;10.50;5.03;;;;;;;;;;5057582;28;20079;-56
2022/04/17 08:13:06;;;;;;;6.38;4.15;;;;;;;;;;5090903;28;20060;-55
2022/04/17 08:15:32;;;;;;;6.78;4.53;;;;;;;;;;5071974;28;20131;-59
2022/04/17 08:17:58;;;;;;;9.88;5.22;;;;;;;;;;5093053;28;20051;-55
2022/04/17 08:20:24;;;;;;;7.55;4.28;;;;;;;;;;5091486;28;20052;-55
2022/04/17 08:22:50;;;;;;;10.60;4.97;;;;;;;;;;5041657;28;20048;-55
2022/04/17 08:25:16;;;;;;;6.00;4.15;;;;;;;;;;5091367;28;20048;-55
2022/04/17 08:28:02;;;;;;;8.75;4.65;;;;;;;;;;5088874;28;20172;-54
2022/04/17 08:30:32;;;;;;;6.82;4.30;;;;;;;;;;5073516;28;20043;-55
2022/04/17 08:33:03;;;;;;;7.60;4.70;;;;;;;;;;5074279;28;20119;-56
2022/04/17 08:35:34;;;;;;;11.10;4.68;;;;;;;;;;5056608;28;20063;-56
2022/04/17 08:38:00;;;;;;;7.15;4.47;;;;;;;;;;5089445;28;20105;-55
2022/04/17 08:40:30;;;;;;;9.25;4.53;;;;;;;;;;5055838;28;20063;-55
2022/04/17 08:42:56;;;;;;;7.45;5.20;;;;;;;;;;5074188;28;20040;-55
2022/04/17 08:45:25;;;;;;;7.93;4.55;;;;;;;;;;5074631;28;20044;-56
2022/04/17 08:47:53;;;;;;;7.68;4.60;;;;;;;;;;5074275;28;20040;-55
2022/04/17 08:50:19;;;;;;;8.80;4.78;;;;;;;;;;5061594;28;20576;-55
2022/04/17 08:52:47;;;;;;;8.60;5.13;;;;;;;;;;5073412;28;20047;-55
2022/04/17 08:55:14;;;;;;;6.63;4.07;;;;;;;;;;5066080;28;20495;-53
2022/04/17 08:57:43;;;;;;;6.80;4.18;;;;;;;;;;5059940;28;20052;-54
2022/04/17 09:00:11;;;;;;;8.95;4.72;;;;;;;;;;5055747;28;20040;-54
2022/04/17 09:02:37;;;;;;;9.45;4.50;;;;;;;;;;5073037;28;20040;-55
2022/04/17 09:05:05;;;;;;;9.75;4.57;;;;;;;;;;5072714;28;20089;-56
2022/04/17 09:07:41;;;;;;;8.23;4.40;;;;;;;;;;5088728;28;20503;-56
2022/04/17 09:10:08;;;;;;;8.13;4.65;;;;;;;;;;5051877;28;20153;-55
2022/04/17 09:12:34;;;;;;;8.00;4.30;;;;;;;;;;5087097;28;20040;-56
2022/04/17 09:15:00;;;;;;;7.68;4.20;;;;;;;;;;5072971;28;20051;-55
2022/04/17 09:17:29;;;;;;;7.25;3.85;;;;;;;;;;5071561;28;20062;-55
2022/04/17 09:19:56;;;;;;;6.03;3.90;;;;;;;;;;5059461;28;20052;-57
2022/04/17 09:22:22;;;;;;;7.25;3.95;;;;;;;;;;5072801;28;20559;-57
2022/04/17 09:24:48;;;;;;;9.18;4.43;;;;;;;;;;5072476;28;20123;-54
2022/04/17 09:27:14;;;;;;;8.27;4.35;;;;;;;;;;5073523;28;20115;-57
2022/04/17 09:29:41;;;;;;;8.52;4.03;;;;;;;;;;5090893;28;20043;-56
2022/04/17 09:32:15;;;;;;;7.45;4.65;;;;;;;;;;5090380;28;20051;-56
2022/04/17 09:34:52;;;;;;;5.90;3.88;;;;;;;;;;5070911;28;20097;-55
2022/04/17 09:37:23;;;;;;;7.05;3.75;;;;;;;;;;5056013;28;20049;-56
2022/04/17 09:39:52;;;;;;;6.88;3.80;;;;;;;;;;5069228;28;20089;-55
2022/04/17 09:42:22;;;;;;;5.35;3.55;;;;;;;;;;5072342;28;20492;-56
2022/04/17 09:44:54;;;;;;;6.50;3.70;;;;;;;;;;5093510;28;20047;-56
2022/04/17 09:47:21;;;;;;;7.18;3.72;;;;;;;;;;5076140;28;20055;-56
2022/04/17 09:49:51;;;;;;;5.43;3.22;;;;;;;;;;5077068;28;20047;-55
2022/04/17 09:52:17;;;;;;;3.97;3.10;;;;;;;;;;5088125;28;20078;-56
2022/04/17 09:54:47;;;;;;;5.75;4.07;;;;;;;;;;5085384;28;20048;-56
2022/04/17 09:57:18;;;;;;;5.97;3.80;;;;;;;;;;5089398;28;20048;-56
2022/04/17 09:59:47;;;;;;;6.22;3.33;;;;;;;;;;5059327;28;20066;-55
2022/04/17 10:02:15;;;;;;;8.20;3.60;;;;;;;;;;5093748;28;20053;-58
2022/04/17 10:04:42;;;;;;;6.18;4.07;;;;;;;;;;5059148;28;20044;-56
2022/04/17 10:07:10;;;;;;;5.85;3.97;;;;;;;;;;5075604;28;20051;-56
2022/04/17 10:09:39;;;;;;;6.10;3.50;;;;;;;;;;5072849;28;20047;-56
2022/04/17 10:12:08;;;;;;;6.75;3.60;;;;;;;;;;5092832;28;20044;-56
2022/04/17 10:14:36;;;;;;;5.82;3.80;;;;;;;;;;5086351;28;20048;-56
2022/04/17 10:17:03;;;;;;;6.35;3.40;;;;;;;;;;5053728;28;20075;-56
2022/04/17 10:19:33;;;;;;;5.53;3.70;;;;;;;;;;5088139;28;20061;-55
2022/04/17 10:22:01;;;;;;;5.72;4.03;;;;;;;;;;5093860;28;20491;-54
2022/04/17 10:24:34;;;;;;;5.13;3.60;;;;;;;;;;5091181;28;20120;-53
2022/04/17 10:27:01;;;;;;;5.97;4.03;;;;;;;;;;5089201;28;20084;-55
2022/04/17 10:29:44;;;;;;;6.20;3.60;;;;;;;;;;5075002;28;20117;-55
2022/04/17 10:32:13;;;;;;;6.60;3.65;;;;;;;;;;5049245;28;20503;-55
2022/04/17 10:34:50;;;;;;;5.38;3.30;;;;;;;;;;5090640;28;21525;-57
2022/04/17 10:37:22;;;;;;;4.72;3.25;;;;;;;;;;5075281;28;20048;-57
2022/04/17 10:39:50;;;;;;;5.40;3.60;;;;;;;;;;5069497;28;20111;-57
2022/04/17 10:42:16;;;;;;;5.70;3.60;;;;;;;;;;5051653;28;20515;-56
2022/04/17 10:44:45;;;;;;;6.00;3.28;;;;;;;;;;5069535;28;20044;-55
2022/04/17 10:47:20;;;;;;;6.20;3.97;;;;;;;;;;5066305;28;20072;-55
2022/04/17 10:49:56;;;;;;;6.57;3.38;;;;;;;;;;5070156;28;20059;-56
2022/04/17 10:52:32;;;;;;;5.40;3.45;;;;;;;;;;5052605;28;20507;-55
2022/04/17 10:55:08;;;;;;;5.03;3.42;;;;;;;;;;5067929;28;20427;-55
2022/04/17 10:57:47;;;;;;;5.93;3.38;;;;;;;;;;5072201;28;20059;-56
2022/04/17 11:00:36;;;;;;;5.75;3.90;;;;;;;;;;5070495;28;20079;-56
2022/04/17 11:03:09;;;;;;;6.40;3.65;;;;;;;;;;5071724;28;20059;-56
2022/04/17 11:08:25;;;;;;;6.53;3.75;;;;;;;;;;5072351;28;20416;-56
2022/04/17 11:10:54;;;;;;;8.07;3.90;;;;;;;;;;5071141;28;20037;-56
2022/04/17 11:13:21;;;;;;;6.28;3.85;;;;;;;;;;5071647;28;20119;-56
2022/04/17 11:15:55;;;;;;;6.13;3.80;;;;;;;;;;5071802;28;20115;-54
2022/04/17 11:18:23;;;;;;;5.43;3.00;;;;;;;;;;5032105;28;20048;-56
2022/04/17 11:20:53;;;;;;;4.72;3.15;;;;;;;;;;5072335;28;20565;-56
2022/04/17 11:23:51;;;;;;;5.00;3.80;;;17.40;90.80;;;;;;5069788;28;20553;-55
2022/04/17 11:26:17;;;;;;;6.05;3.38;;;;;;;;;;5071104;28;20188;-55
2022/04/17 11:28:43;;;;;;;5.60;3.60;;;;;;;;;;5072171;28;20053;-56
2022/04/17 11:31:09;;;;;;;8.13;2.90;;;;;;;;;;5070432;28;20048;-54
2022/04/17 11:33:35;;;;;;;4.35;2.97;;;;;;;;;;5070260;28;20053;-55
2022/04/17 11:36:02;;;;;;;4.80;2.90;;;;;;;;;;5069529;28;20037;-56
2022/04/17 11:38:28;;;;;;;5.57;3.55;;;;;;;;;;5073024;28;20496;-56
2022/04/17 11:40:59;;;;;;;4.53;2.95;;;;;;;;;;5092224;28;20078;-54
2022/04/17 11:43:29;;;;;;;4.78;2.95;;;;;;;;;;5074378;28;20097;-58
2022/04/17 11:46:05;;;;;;;4.88;2.50;;;;;;;;;;5072055;28;20055;-59
2022/04/17 11:48:34;;;;;;;5.75;3.10;;;;;;;;;;5089847;28;20039;-61
2022/04/17 11:51:00;;;;;;;4.90;2.75;;;;;;;;;;5074252;28;20048;-59
2022/04/17 11:53:26;;;;;;;5.05;2.95;;;;;;;;;;5071998;28;20346;-60
2022/04/17 11:55:52;;;;;;;5.03;2.95;;;;;;;;;;5054571;28;20508;-58
2022/04/17 11:58:25;;;;;;;9.05;2.92;;;;;;;;;;5071315;28;20043;-58
2022/04/17 12:01:01;;;;;;;5.18;3.50;;;;;;;;;;5077590;28;20041;-58
2022/04/17 12:03:34;;;;;;;3.88;2.80;;;;;;;;;;5072948;28;20056;-60
2022/04/17 12:06:02;;;;;;;7.05;3.47;;;;;;;;;;5082997;28;20040;-57
2022/04/17 12:08:34;;;;;;;6.53;3.05;;;;;;;;;;5055818;28;20252;-58
2022/04/17 12:11:01;;;;;;;5.28;3.40;;;;;;;;;;5082242;28;20048;-57
2022/04/17 12:13:30;;;;;;;5.93;3.20;;;;;;;;;;5092388;28;20051;-58
2022/04/17 12:16:03;;;;;;;4.95;3.22;;;;;;;;;;5074379;28;20139;-59
2022/04/17 12:18:32;;;;;;;5.47;3.28;;;;;;;;;;5092236;28;20040;-57
2022/04/17 12:21:06;;;;;;;5.35;3.33;;;;;;;;;;5091345;28;20044;-58
2022/04/17 12:23:35;;;;;;;4.75;3.42;;;;;;;;;;5092504;28;20048;-58
2022/04/17 12:26:06;;;;;;;5.63;3.17;;;;;;;;;;5068357;28;20051;-58
2022/04/17 12:28:32;;;;;;;5.03;3.03;;;;;;;;;;5069580;28;20045;-57
2022/04/17 12:30:59;;;;;;;5.10;3.40;;;;;;;;;;5082305;28;20094;-57
2022/04/17 12:33:27;;;;;;;5.15;3.22;;;;;;;;;;5079183;28;20046;-57
2022/04/17 12:36:02;;;;;;;5.68;3.15;;;;;;;;;;5091088;28;20554;-57
2022/04/17 12:38:36;;;;;;;5.18;3.25;;;;;;;;;;5075068;28;20056;-56
2022/04/17 12:41:18;;;;;;;5.40;3.40;;;;;;;;;;5072774;28;20036;-56
2022/04/17 12:43:49;;;;;;;5.32;3.47;;;;;;;;;;5108331;28;20036;-56
2022/04/17 12:46:22;;;;;;;5.15;3.25;;;;;;;;;;5090979;28;20460;-56
2022/04/17 12:49:03;;;;;;;5.50;3.20;;;;;;;;;;5091919;28;20145;-56
2022/04/17 12:51:29;;;;;;;5.38;3.45;;;;;;;;;;5091730;28;20036;-56
2022/04/17 12:53:55;;;;;;;5.63;3.25;;;;;;;;;;5091820;28;20115;-56
2022/04/17 12:56:25;;;;;;;5.00;2.95;;;;;;;;;;5088722;28;20040;-56
2022/04/17 12:58:51;;;;;;;4.55;3.42;;;;;;;;;;5074333;28;20040;-56
2022/04/17 13:01:22;;;;;;;4.68;2.80;;;;;;;;;;5091716;28;20397;-56
2022/04/17 13:03:49;;;;;;;7.82;3.08;;;;;;;;;;5092028;28;20126;-56
2022/04/17 13:06:22;;;;;;;5.35;3.85;;;;;;;;;;5090672;28;20052;-56
2022/04/17 13:09:04;;;;;;;5.70;3.20;;;;;;;;;;5102192;28;20051;-56
2022/04/17 13:11:36;;;;;;;5.68;3.10;;;;;;;;;;5096971;28;20135;-56
2022/04/17 13:14:02;;;;;;;5.05;2.88;;;;;;;;;;5071966;28;20135;-56
2022/04/17 13:16:32;;;;;;;4.93;2.90;;;;;;;;;;5079094;28;20046;-56
2022/04/17 13:18:58;;;;;;;5.10;2.78;;;;;;;;;;5092198;28;20048;-56
2022/04/17 13:21:25;;;;;;;4.63;3.13;;;;;;;;;;5057747;28;20048;-56
2022/04/17 13:23:54;;;;;;;4.15;3.13;;;;;;;;;;5080636;28;20500;-56
2022/04/17 13:26:21;;;;;;;4.97;2.70;;;;;;;;;;5075434;28;20044;-56
2022/04/17 13:28:48;;;;;;;4.65;2.95;;;;;;;;;;5089268;28;20115;-56
2022/04/17 13:31:16;;;;;;;4.20;2.80;;;;;;;;;;5095734;28;20052;-56
2022/04/17 13:33:47;;;;;;;5.97;3.35;;;;;;;;;;5094183;28;20052;-56
2022/04/17 13:36:13;;;;;;;5.55;2.83;;;;;;;;;;5077164;28;20078;-56
2022/04/17 13:38:43;;;;;;;4.85;3.30;;;;;;;;;;5069327;28;20087;-56
2022/04/17 13:41:14;;;;;;;5.13;3.05;;;;;;;;;;5103726;28;20510;-58
2022/04/17 13:43:42;;;;;;;5.32;3.15;;;;;;;;;;5075299;28;20055;-56
2022/04/17 13:46:08;;;;;;;6.40;3.33;;;;;;;;;;5103339;28;20140;-57
2022/04/17 13:48:38;;;;;;;5.97;3.47;;;;;;;;;;5077038;28;20496;-56
2022/04/17 13:51:06;;;;;;;5.43;3.20;;;;;;;;;;5077741;28;20055;-56
2022/04/17 13:53:35;;;;;;;8.40;3.63;;;;;;;;;;5093709;28;20305;-56
2022/04/17 13:56:02;;;;;;;5.60;3.50;;;;;;;;;;5095430;28;20047;-56
2022/04/17 13:58:28;;;;;;;4.60;3.47;;;;;;;;;;5093141;28;20048;-56
2022/04/17 14:00:56;;;;;;;5.72;2.85;;;;;;;;;;5089409;28;20106;-56
2022/04/17 14:03:22;;;;;;;4.75;3.17;;;;;;;;;;5106626;28;20043;-56
2022/04/17 14:05:50;;;;;;;5.15;3.80;;;;;;;;;;5095273;28;20066;-56
2022/04/17 14:08:17;;;;;;;5.28;3.20;;;;;;;;;;5093586;28;20055;-57
2022/04/17 14:10:43;;;;;;;5.60;3.20;;;;;;;;;;5093971;28;20036;-56
2022/04/17 14:13:10;;;;;;;5.65;3.25;;;;;;;;;;5101813;28;20043;-56
2022/04/17 14:15:39;;;;;;;5.32;2.70;;;;;;;;;;5076939;28;20086;-56
2022/04/17 14:18:08;;;;;;;5.05;2.75;;;;;;;;;;5094609;28;20050;-56
2022/04/17 14:20:34;;;;;;;4.50;2.83;;;;;;;;;;5058519;28;20044;-56
2022/04/17 14:23:00;;;;;;;4.88;2.55;;;;;;;;;;5059232;28;20506;-56
2022/04/17 14:25:26;;;;;;;4.70;2.67;;;;;;;;;;5075406;28;20055;-56
2022/04/17 14:27:52;;;;;;;6.43;3.13;;;;;;;;;;5090151;28;20487;-58
2022/04/17 14:30:18;;;;;;;6.38;2.85;;;;;;;;;;5100105;28;20047;-58
2022/04/17 14:32:45;;;;;;;5.80;2.78;;;;;;;;;;5113502;28;20130;-58
2022/04/17 14:35:11;;;;;;;5.47;3.00;;;;;;;;;;5076262;28;20058;-58
2022/04/17 14:37:37;;;;;;;5.82;2.92;;;;;;;;;;5095519;28;20105;-58
2022/04/17 14:40:03;;;;;;;4.90;2.75;;;;;;;;;;5073047;28;20048;-58
2022/04/17 14:42:32;;;;;;;5.93;3.08;;;;;;;;;;5094484;28;20399;-57
2022/04/17 14:44:58;;;;;;;5.07;2.67;;;;;;;;;;5093126;28;20074;-58
2022/04/17 14:47:24;;;;;;;4.50;2.70;;;;;;;;;;5094437;28;20118;-58
2022/04/17 14:49:52;;;;;;;4.70;2.85;;;;;;;;;;5093872;28;20047;-57
2022/04/17 14:52:22;;;;;;;4.15;2.83;;;;;;;;;;5094169;28;20047;-57
2022/04/17 14:54:51;;;;;;;7.23;2.80;;;;;;;;;;5094724;28;20507;-57
2022/04/17 14:57:17;;;;;;;5.25;3.08;;;;;;;;;;5090359;28;20059;-58
2022/04/17 14:59:46;;;;;;;4.10;3.00;;;;;;;;;;5092298;28;20058;-58
2022/04/17 15:02:13;;;;;;;5.32;3.35;;;;;;;;;;5094238;28;20249;-58
2022/04/17 15:04:39;;;;;;;5.85;2.70;;;;;;;;;;5091952;28;20399;-58
2022/04/17 15:07:05;;;;;;;4.35;2.50;;;;;;;;;;5066280;28;20189;-58
2022/04/17 15:09:31;;;;;;;4.35;2.50;;;;;;;;;;5090002;28;20051;-58
2022/04/17 15:11:58;;;;;;;5.65;2.88;;;;;;;;;;5105656;28;20556;-58